Time;durP1;ratioP1;P1;durP2;ratioP2;P2;SDS_P1;SDS_P2;PMS_P1;PMS_P2;Temp;Humidity;BMP_temperature;BMP_pressure;BME280_temperature;BME280_humidity;BME280_pressure;Samples;Min_cycle;Max_cycle;Signal;HPM_P1;HPM_P2
2021/07/18 00:04:30;;;;;;;25.87;23.17;;;19.80;99.90;;;;;;6221993;23;20400;-91
2021/07/18 00:07:27;;;;;;;26.47;23.90;;;19.80;99.90;;;;;;6228529;23;20420;-92
2021/07/18 00:10:10;;;;;;;30.13;22.83;;;19.80;99.90;;;;;;6227696;23;20548;-91
2021/07/18 00:12:38;;;;;;;24.97;22.47;;;19.70;99.90;;;;;;6227406;23;20409;-91
2021/07/18 00:15:17;;;;;;;23.67;21.37;;;19.70;99.90;;;;;;6225477;23;20413;-91
2021/07/18 00:18:05;;;;;;;23.40;20.93;;;19.70;99.90;;;;;;6225362;23;20440;-91
2021/07/18 00:24:23;;;;;;;24.83;22.40;;;19.60;99.90;;;;;;6223216;23;20465;-91
2021/07/18 00:27:02;;;;;;;21.57;19.47;;;19.60;99.90;;;;;;6234951;22;20469;-92
2021/07/18 00:29:44;;;;;;;23.07;20.67;;;19.60;99.90;;;;;;6237474;22;20456;-91
2021/07/18 00:32:34;;;;;;;22.20;19.87;;;19.60;99.90;;;;;;6242893;22;20435;-92
2021/07/18 00:35:15;;;;;;;21.10;18.80;;;19.60;99.90;;;;;;6226392;23;20926;-92
2021/07/18 00:40:52;;;;;;;23.10;20.07;;;19.40;99.90;;;;;;6222083;23;20452;-91
2021/07/18 00:43:39;;;;;;;21.50;18.60;;;19.40;99.90;;;;;;6223571;23;20465;-92
2021/07/18 00:46:24;;;;;;;22.83;20.63;;;19.40;99.90;;;;;;6223135;23;20491;-92
2021/07/18 00:49:05;;;;;;;20.43;18.27;;;19.30;99.90;;;;;;6224240;23;20948;-92
2021/07/18 00:51:45;;;;;;;21.10;18.20;;;19.40;99.90;;;;;;6233278;22;20411;-92
2021/07/18 00:54:24;;;;;;;20.13;18.07;;;19.30;99.90;;;;;;6227012;23;20403;-91
2021/07/18 00:56:57;;;;;;;21.20;19.07;;;19.20;99.90;;;;;;6231989;23;20451;-91
2021/07/18 00:59:27;;;;;;;21.47;19.37;;;19.10;99.90;;;;;;6231560;23;20465;-91
2021/07/18 01:02:03;;;;;;;22.60;20.43;;;19.10;99.90;;;;;;6231439;23;20436;-91
2021/07/18 01:10:51;;;;;;;26.90;19.40;;;19.00;99.90;;;;;;6226055;23;20429;-91
2021/07/18 01:13:25;;;;;;;23.63;21.10;;;19.00;99.90;;;;;;6231146;23;20427;-91
2021/07/18 01:16:00;;;;;;;21.67;19.30;;;19.00;99.90;;;;;;6243782;22;20403;-92
2021/07/18 01:18:53;;;;;;;25.43;20.80;;;18.90;99.90;;;;;;6243581;22;20931;-91
2021/07/18 01:21:29;;;;;;;23.60;21.13;;;18.90;99.90;;;;;;6237397;23;20474;-91
2021/07/18 01:24:07;;;;;;;23.33;21.23;;;18.80;99.90;;;;;;6229175;23;20464;-91
2021/07/18 01:26:44;;;;;;;23.00;20.33;;;18.80;99.90;;;;;;6236838;23;20410;-91
2021/07/18 01:29:32;;;;;;;22.23;19.20;;;18.60;99.90;;;;;;6236177;23;20409;-91
2021/07/18 01:32:23;;;;;;;24.20;21.87;;;18.50;99.90;;;;;;6231902;23;20410;-91
2021/07/18 01:34:51;;;;;;;23.43;21.23;;;18.50;99.90;;;;;;6228120;23;20494;-91
2021/07/18 01:37:29;;;;;;;23.47;21.07;;;18.50;99.90;;;;;;6231057;23;20438;-91
2021/07/18 01:43:01;;;;;;;23.80;21.37;;;18.30;99.90;;;;;;6220737;23;20468;-90
2021/07/18 01:45:33;;;;;;;24.43;21.87;;;18.20;99.90;;;;;;6228360;23;20409;-90
2021/07/18 01:48:04;;;;;;;22.53;20.30;;;18.20;99.90;;;;;;6228122;23;20403;-91
2021/07/18 01:53:21;;;;;;;22.70;20.33;;;18.30;99.90;;;;;;6232508;23;20406;-92
2021/07/18 01:56:20;;;;;;;22.90;20.50;;;18.30;99.90;;;;;;6233654;23;20414;-92
2021/07/18 01:59:04;;;;;;;23.80;21.30;;;18.30;99.90;;;;;;6226746;23;20906;-91
2021/07/18 02:01:48;;;;;;;22.47;20.23;;;18.30;99.90;;;;;;6228225;23;20440;-92
2021/07/18 02:04:43;;;;;;;23.83;21.33;;;18.20;99.90;;;;;;6229234;23;20423;-92
2021/07/18 02:07:28;;;;;;;18.93;17.13;;;18.10;99.90;;;;;;6222327;23;20407;-92
2021/07/18 02:10:01;;;;;;;20.60;18.50;;;18.20;99.90;;;;;;6223452;23;20461;-92
2021/07/18 02:12:45;;;;;;;18.40;16.50;;;18.10;99.90;;;;;;6243347;22;20381;-94
2021/07/18 02:15:23;;;;;;;18.13;16.30;;;18.10;99.90;;;;;;6236202;22;20393;-93
2021/07/18 02:17:59;;;;;;;17.20;15.57;;;18.10;99.90;;;;;;6233276;22;20449;-92
2021/07/18 02:20:37;;;;;;;17.10;15.40;;;18.00;99.90;;;;;;6232342;23;20977;-93
2021/07/18 02:23:12;;;;;;;16.27;14.13;;;18.00;99.90;;;;;;6229230;23;20418;-92
2021/07/18 02:25:45;;;;;;;18.30;15.13;;;18.00;99.90;;;;;;6223402;23;20407;-92
2021/07/18 02:28:21;;;;;;;14.43;12.93;;;18.00;99.90;;;;;;6231265;22;20421;-94
2021/07/18 02:30:54;;;;;;;12.87;11.70;;;18.00;99.90;;;;;;6226433;23;20931;-92
2021/07/18 02:33:38;;;;;;;12.27;11.10;;;18.00;99.90;;;;;;6234571;23;20421;-92
2021/07/18 02:36:10;;;;;;;11.83;10.63;;;17.90;99.90;;;;;;6225953;23;20413;-92
2021/07/18 02:38:54;;;;;;;12.47;10.40;;;17.90;99.90;;;;;;6224406;23;20443;-92
2021/07/18 02:41:34;;;;;;;12.67;10.63;;;17.90;99.90;;;;;;6224094;23;20450;-92
2021/07/18 02:44:15;;;;;;;11.37;10.30;;;17.90;99.90;;;;;;6225794;23;20428;-92
2021/07/18 02:47:01;;;;;;;10.43;9.53;;;17.90;99.90;;;;;;6223739;23;20420;-92
2021/07/18 02:49:52;;;;;;;10.97;9.77;;;17.90;99.90;;;;;;6224351;23;20512;-92
2021/07/18 02:52:22;;;;;;;9.70;8.77;;;17.90;99.90;;;;;;6224515;23;20441;-92
2021/07/18 02:54:50;;;;;;;11.30;9.40;;;17.80;99.90;;;;;;6226786;23;20433;-92
2021/07/18 02:57:18;;;;;;;11.20;9.87;;;17.80;99.90;;;;;;6225644;23;21109;-93
2021/07/18 02:59:46;;;;;;;9.20;8.30;;;17.80;99.90;;;;;;6229415;22;20442;-92
2021/07/18 03:02:14;;;;;;;9.83;8.83;;;17.80;99.90;;;;;;6224301;23;20864;-92
2021/07/18 03:04:50;;;;;;;10.83;9.67;;;17.80;99.90;;;;;;6227269;23;20509;-92
2021/07/18 03:07:30;;;;;;;9.33;8.43;;;17.80;99.90;;;;;;6233745;23;20399;-92
2021/07/18 03:10:07;;;;;;;9.63;8.80;;;17.80;99.90;;;;;;6224381;23;20442;-92
2021/07/18 03:12:46;;;;;;;11.20;10.10;;;17.90;99.90;;;;;;6225456;23;20411;-92
2021/07/18 03:15:27;;;;;;;9.60;8.50;;;17.90;99.90;;;;;;6224951;23;20436;-92
2021/07/18 03:18:06;;;;;;;12.07;9.70;;;17.90;99.90;;;;;;6224233;23;20437;-92
2021/07/18 03:20:34;;;;;;;10.37;8.60;;;17.80;99.90;;;;;;6231820;23;20440;-92
2021/07/18 03:23:10;;;;;;;9.17;8.27;;;17.80;99.90;;;;;;6231118;23;20424;-92
2021/07/18 03:25:41;;;;;;;10.10;8.50;;;17.90;99.90;;;;;;6243725;22;20480;-93
2021/07/18 03:28:13;;;;;;;9.70;8.40;;;17.70;99.90;;;;;;6239279;22;20413;-92
2021/07/18 03:30:51;;;;;;;8.90;8.10;;;17.80;99.90;;;;;;6230386;23;20437;-91
2021/07/18 03:33:34;;;;;;;10.47;9.50;;;17.70;99.90;;;;;;6227965;23;20409;-92
2021/07/18 03:36:14;;;;;;;10.07;8.93;;;17.60;99.90;;;;;;6225428;23;20419;-91
2021/07/18 03:38:45;;;;;;;10.70;9.60;;;17.60;99.90;;;;;;6230416;23;20442;-92
2021/07/18 03:41:22;;;;;;;10.20;9.20;;;17.60;99.90;;;;;;6234442;23;20462;-93
2021/07/18 03:43:49;;;;;;;11.50;10.33;;;17.70;99.90;;;;;;6234584;23;20417;-91
2021/07/18 03:46:18;;;;;;;11.17;9.80;;;17.70;99.90;;;;;;6227238;23;20441;-91
2021/07/18 03:48:45;;;;;;;11.57;9.30;;;17.70;99.90;;;;;;6223548;23;20412;-92
2021/07/18 03:51:12;;;;;;;10.20;9.07;;;17.70;99.90;;;;;;6223591;23;20433;-92
2021/07/18 03:53:39;;;;;;;9.97;8.83;;;17.70;99.90;;;;;;6230654;23;20446;-91
2021/07/18 03:56:06;;;;;;;10.27;8.67;;;17.70;99.90;;;;;;6242354;22;20419;-94
2021/07/18 03:58:33;;;;;;;12.27;8.20;;;17.70;99.90;;;;;;6236158;22;20472;-91
2021/07/18 04:01:00;;;;;;;11.97;9.17;;;17.80;99.90;;;;;;6240190;22;20423;-91
2021/07/18 04:03:29;;;;;;;9.80;8.70;;;17.80;99.90;;;;;;6239401;23;20395;-92
2021/07/18 04:05:57;;;;;;;9.23;8.30;;;17.80;99.90;;;;;;6239507;22;20408;-93
2021/07/18 04:08:24;;;;;;;8.57;7.77;;;17.60;99.90;;;;;;6228909;22;20751;-92
2021/07/18 04:10:51;;;;;;;8.80;7.90;;;17.70;99.90;;;;;;6227131;23;20504;-93
2021/07/18 04:13:17;;;;;;;9.50;7.80;;;17.70;99.90;;;;;;6227196;23;20433;-92
2021/07/18 04:15:44;;;;;;;8.40;7.37;;;17.70;99.90;;;;;;6227591;23;20413;-91
2021/07/18 04:18:11;;;;;;;8.37;7.67;;;17.80;99.90;;;;;;6231397;23;20450;-92
2021/07/18 04:20:40;;;;;;;7.70;7.00;;;17.70;99.90;;;;;;6225768;23;20502;-92
2021/07/18 04:23:08;;;;;;;9.23;7.37;;;17.80;99.90;;;;;;6241745;22;20514;-94
2021/07/18 04:25:35;;;;;;;7.93;7.20;;;17.80;99.90;;;;;;6244603;22;20437;-94
2021/07/18 04:28:02;;;;;;;8.60;7.57;;;17.90;99.90;;;;;;6244640;22;20436;-94
2021/07/18 04:30:29;;;;;;;8.80;8.00;;;17.90;99.90;;;;;;6244785;22;20417;-93
2021/07/18 04:32:55;;;;;;;7.70;7.00;;;17.90;99.90;;;;;;6244529;22;20428;-94
2021/07/18 04:35:22;;;;;;;8.40;6.40;;;18.00;99.90;;;;;;6244177;22;20420;-93
2021/07/18 04:37:57;;;;;;;9.00;6.73;;;18.00;99.90;;;;;;6243335;22;20426;-93
2021/07/18 04:40:26;;;;;;;9.80;7.10;;;18.00;99.90;;;;;;6243683;22;20452;-95
2021/07/18 04:42:53;;;;;;;8.77;6.30;;;18.00;99.90;;;;;;6243725;22;20410;-94
2021/07/18 04:45:20;;;;;;;10.97;6.97;;;18.00;99.90;;;;;;6243466;22;20390;-95
2021/07/18 04:47:56;;;;;;;8.23;6.00;;;18.00;99.90;;;;;;6243404;22;20385;-94
2021/07/18 04:50:25;;;;;;;7.20;6.10;;;18.00;99.90;;;;;;6241007;22;20449;-87
2021/07/18 04:52:52;;;;;;;9.07;6.00;;;18.10;99.90;;;;;;6238607;23;20772;-84
2021/07/18 04:55:21;;;;;;;5.67;5.23;;;18.20;99.90;;;;;;6233140;23;20887;-85
2021/07/18 04:57:48;;;;;;;7.13;6.50;;;18.30;99.90;;;;;;6233328;23;20459;-85
2021/07/18 05:00:16;;;;;;;8.43;5.87;;;18.30;99.90;;;;;;6231134;23;20494;-85
2021/07/18 05:02:43;;;;;;;7.17;6.43;;;18.30;99.90;;;;;;6224388;23;20396;-85
2021/07/18 05:05:12;;;;;;;7.53;5.37;;;18.40;99.90;;;;;;6223600;23;20431;-85
2021/07/18 05:07:50;;;;;;;5.30;4.73;;;18.50;99.90;;;;;;6226697;23;20428;-85
2021/07/18 05:10:18;;;;;;;5.07;4.63;;;18.50;99.90;;;;;;6229546;22;20490;-82
2021/07/18 05:12:47;;;;;;;6.07;4.47;;;18.60;99.90;;;;;;6247112;23;20397;-82
2021/07/18 05:15:14;;;;;;;5.43;4.07;;;18.70;99.90;;;;;;6246409;23;20397;-82
2021/07/18 05:17:41;;;;;;;7.03;5.17;;;18.80;99.90;;;;;;6255346;23;20441;-78
2021/07/18 05:20:10;;;;;;;6.03;4.37;;;18.90;99.90;;;;;;6264233;22;20428;-81
2021/07/18 05:22:37;;;;;;;5.60;4.47;;;19.20;99.90;;;;;;6255664;23;20381;-79
2021/07/18 05:25:07;;;;;;;5.00;4.50;;;19.80;99.90;;;;;;6262187;23;20407;-81
2021/07/18 05:27:35;;;;;;;4.20;3.80;;;20.50;99.90;;;;;;6248689;23;20415;-82
2021/07/18 05:30:04;;;;;;;4.87;4.00;;;21.10;99.90;;;;;;6249229;22;20429;-82
2021/07/18 05:32:31;;;;;;;4.30;3.43;;;21.70;99.90;;;;;;6249514;23;20822;-81
2021/07/18 05:34:57;;;;;;;6.37;4.30;;;22.20;99.90;;;;;;6249458;23;20403;-82
2021/07/18 05:37:24;;;;;;;3.80;3.50;;;22.70;99.90;;;;;;6248394;23;20415;-83
2021/07/18 05:39:51;;;;;;;4.23;3.67;;;23.20;98.90;;;;;;6247431;22;20423;-82
2021/07/18 05:42:17;;;;;;;3.93;3.23;;;23.80;97.60;;;;;;6250192;23;20414;-82
2021/07/18 05:44:45;;;;;;;3.77;3.37;;;24.20;96.00;;;;;;6247336;23;20392;-83
2021/07/18 05:47:13;;;;;;;5.10;3.40;;;24.50;95.00;;;;;;6248287;23;20450;-83
2021/07/18 05:49:40;;;;;;;4.23;3.73;;;24.70;94.50;;;;;;6261009;22;20412;-81
2021/07/18 05:52:07;;;;;;;3.60;3.07;;;25.10;93.50;;;;;;6275691;22;20388;-80
2021/07/18 05:54:34;;;;;;;4.57;3.23;;;25.50;93.00;;;;;;6262865;23;20409;-81
2021/07/18 05:57:01;;;;;;;3.37;2.97;;;25.60;91.80;;;;;;6256591;23;20403;-81
2021/07/18 05:59:28;;;;;;;3.43;3.00;;;25.90;90.90;;;;;;6260851;22;20452;-82
2021/07/18 06:01:55;;;;;;;4.03;2.97;;;26.20;89.80;;;;;;6260181;23;20400;-82
2021/07/18 06:04:24;;;;;;;4.90;2.77;;;26.40;88.20;;;;;;6251953;23;20387;-81
2021/07/18 06:06:51;;;;;;;5.73;2.97;;;26.80;86.90;;;;;;6261768;23;20472;-81
2021/07/18 06:09:17;;;;;;;3.53;3.20;;;26.90;85.20;;;;;;6255195;23;20403;-81
2021/07/18 06:11:44;;;;;;;5.63;3.23;;;27.30;83.80;;;;;;6250932;22;20436;-81
2021/07/18 06:14:11;;;;;;;4.43;2.90;;;27.30;82.80;;;;;;6251765;23;20407;-82
2021/07/18 06:16:37;;;;;;;3.67;3.37;;;27.60;81.20;;;;;;6249847;23;20767;-81
2021/07/18 06:19:04;;;;;;;4.10;2.90;;;27.70;79.90;;;;;;6247609;23;20817;-81
2021/07/18 06:21:32;;;;;;;4.60;2.47;;;27.80;77.60;;;;;;6247885;22;20412;-81
2021/07/18 06:23:59;;;;;;;3.23;2.17;;;28.00;77.00;;;;;;6249064;23;20400;-82
2021/07/18 06:26:25;;;;;;;4.00;3.43;;;28.30;75.90;;;;;;6250965;23;20411;-83
2021/07/18 06:28:52;;;;;;;3.67;2.77;;;28.30;76.10;;;;;;6247635;23;20463;-79
2021/07/18 06:31:19;;;;;;;3.27;2.97;;;28.50;74.10;;;;;;6247815;22;20420;-82
2021/07/18 06:33:45;;;;;;;3.60;2.57;;;28.70;74.00;;;;;;6250847;23;20404;-83
2021/07/18 06:36:12;;;;;;;3.37;3.07;;;28.90;72.40;;;;;;6250847;23;20930;-82
2021/07/18 06:38:40;;;;;;;3.13;2.70;;;29.20;70.50;;;;;;6252378;23;20495;-81
2021/07/18 06:41:07;;;;;;;3.50;2.63;;;29.60;69.80;;;;;;6261803;22;20424;-83
2021/07/18 06:43:34;;;;;;;3.70;2.53;;;29.50;68.00;;;;;;6256254;23;20391;-82
2021/07/18 06:46:01;;;;;;;2.80;2.50;;;29.60;68.10;;;;;;6249700;23;20407;-83
2021/07/18 06:48:28;;;;;;;3.73;3.20;;;29.80;67.00;;;;;;6249528;23;20400;-82
2021/07/18 06:50:55;;;;;;;2.93;2.60;;;30.00;66.80;;;;;;6257126;22;20428;-81
2021/07/18 06:53:23;;;;;;;3.77;2.50;;;29.90;66.10;;;;;;6272285;23;20423;-81
2021/07/18 06:55:51;;;;;;;2.60;2.40;;;30.30;65.70;;;;;;6252433;23;20403;-83
2021/07/18 06:58:18;;;;;;;2.70;2.43;;;30.50;63.90;;;;;;6249892;23;20442;-83
2021/07/18 07:00:45;;;;;;;3.83;2.43;;;30.70;63.20;;;;;;6249419;22;20790;-83
2021/07/18 07:03:12;;;;;;;4.37;2.93;;;31.00;62.40;;;;;;6250089;23;20409;-83
2021/07/18 07:05:38;;;;;;;4.73;3.27;;;31.40;61.40;;;;;;6249546;23;20411;-83
2021/07/18 07:08:06;;;;;;;3.40;2.60;;;31.60;59.70;;;;;;6249263;23;20391;-83
2021/07/18 07:10:32;;;;;;;4.20;3.23;;;31.90;60.10;;;;;;6249350;22;20447;-83
2021/07/18 07:13:00;;;;;;;4.17;2.67;;;31.90;58.70;;;;;;6249783;23;20416;-83
2021/07/18 07:15:27;;;;;;;3.90;2.60;;;32.30;58.40;;;;;;6252334;23;20416;-81
2021/07/18 07:17:54;;;;;;;3.20;2.90;;;31.90;57.90;;;;;;6258583;23;20410;-83
2021/07/18 07:20:21;;;;;;;2.80;2.60;;;32.10;57.70;;;;;;6250153;22;20442;-83
2021/07/18 07:22:47;;;;;;;5.63;3.07;;;32.20;57.50;;;;;;6250094;23;20431;-83
2021/07/18 07:25:15;;;;;;;4.77;2.70;;;32.40;56.80;;;;;;6248972;23;20471;-83
2021/07/18 07:27:43;;;;;;;7.90;3.30;;;32.60;56.80;;;;;;6249999;23;20442;-83
2021/07/18 07:30:15;;;;;;;3.10;2.70;;;32.50;56.10;;;;;;6249408;22;20428;-84
2021/07/18 07:32:42;;;;;;;2.77;2.50;;;32.70;56.40;;;;;;6249276;23;20510;-82
2021/07/18 07:35:12;;;;;;;4.57;3.30;;;32.90;55.90;;;;;;6247429;23;20407;-83
2021/07/18 07:37:40;;;;;;;3.37;2.87;;;33.20;55.20;;;;;;6265703;23;20411;-80
2021/07/18 07:40:08;;;;;;;4.20;2.80;;;33.60;54.30;;;;;;6266761;22;20448;-83
2021/07/18 07:42:35;;;;;;;2.63;2.43;;;33.80;54.20;;;;;;6271447;23;20400;-82
2021/07/18 07:45:02;;;;;;;4.80;2.90;;;34.20;52.90;;;;;;6269976;23;20396;-81
2021/07/18 07:47:30;;;;;;;5.37;2.53;;;34.30;53.00;;;;;;6263159;23;20411;-83
2021/07/18 07:49:57;;;;;;;2.80;2.33;;;34.40;52.80;;;;;;6255024;22;20483;-83
2021/07/18 07:52:23;;;;;;;4.47;3.03;;;34.60;52.00;;;;;;6251152;23;20442;-83
2021/07/18 07:54:50;;;;;;;2.90;2.30;;;33.90;52.40;;;;;;6249853;23;20400;-83
2021/07/18 07:57:17;;;;;;;3.97;2.70;;;34.00;52.70;;;;;;6251114;23;20404;-83
2021/07/18 07:59:43;;;;;;;3.30;2.80;;;34.70;52.10;;;;;;6249734;22;20912;-83
2021/07/18 08:02:10;;;;;;;3.20;2.73;;;35.20;51.40;;;;;;6250309;23;20404;-83
2021/07/18 08:04:38;;;;;;;2.93;2.60;;;35.80;50.20;;;;;;6250655;23;20404;-83
2021/07/18 08:07:05;;;;;;;4.83;3.00;;;35.90;50.00;;;;;;6250536;23;20404;-83
2021/07/18 08:09:32;;;;;;;2.97;2.77;;;36.30;48.70;;;;;;6249423;22;20407;-84
2021/07/18 08:11:59;;;;;;;3.73;3.00;;;36.30;48.60;;;;;;6248309;23;20412;-83
2021/07/18 08:14:26;;;;;;;3.63;2.70;;;36.10;48.50;;;;;;6249465;23;20411;-83
2021/07/18 08:16:53;;;;;;;3.70;3.03;;;36.80;47.80;;;;;;6249748;23;20404;-83
2021/07/18 08:19:20;;;;;;;7.33;3.10;;;36.50;47.90;;;;;;6248331;23;20962;-83
2021/07/18 08:21:48;;;;;;;4.07;3.53;;;36.20;48.10;;;;;;6252788;22;20438;-83
2021/07/18 08:24:14;;;;;;;4.30;3.00;;;36.70;47.80;;;;;;6265036;23;20922;-82
2021/07/18 08:26:41;;;;;;;4.10;2.90;;;36.40;47.80;;;;;;6262781;23;20396;-84
2021/07/18 08:29:08;;;;;;;3.67;2.93;;;36.90;47.30;;;;;;6251825;23;20407;-84
2021/07/18 08:31:35;;;;;;;5.33;3.43;;;37.20;47.10;;;;;;6250568;22;20424;-83
2021/07/18 08:34:01;;;;;;;3.33;2.97;;;37.80;45.90;;;;;;6250485;23;20894;-83
2021/07/18 08:36:28;;;;;;;2.63;2.43;;;37.50;45.60;;;;;;6267857;22;20388;-83
2021/07/18 08:38:56;;;;;;;4.13;3.07;;;37.40;45.90;;;;;;6258663;23;20462;-82
2021/07/18 08:41:23;;;;;;;3.67;2.77;;;37.80;45.40;;;;;;6250464;22;20915;-83
2021/07/18 08:43:51;;;;;;;5.97;3.47;;;37.80;45.30;;;;;;6251458;23;20404;-82
2021/07/18 08:46:20;;;;;;;5.40;3.10;;;38.20;45.10;;;;;;6250686;23;20454;-84
2021/07/18 08:48:47;;;;;;;3.77;3.00;;;38.30;44.70;;;;;;6250128;23;20407;-83
2021/07/18 08:51:14;;;;;;;4.30;3.37;;;38.30;44.60;;;;;;6249421;22;20427;-82
2021/07/18 08:53:41;;;;;;;2.93;2.70;;;38.40;44.90;;;;;;6250247;23;20404;-83
2021/07/18 08:56:10;;;;;;;3.87;3.47;;;38.40;44.20;;;;;;6250756;23;20471;-83
2021/07/18 08:58:36;;;;;;;4.20;3.20;;;38.80;44.00;;;;;;6250099;23;20416;-84
2021/07/18 09:01:04;;;;;;;3.10;2.80;;;38.60;43.40;;;;;;6260739;22;20431;-82
2021/07/18 09:03:30;;;;;;;3.37;2.60;;;39.20;43.40;;;;;;6262898;23;20400;-83
2021/07/18 09:06:08;;;;;;;4.50;3.20;;;40.00;42.60;;;;;;6253877;23;20414;-82
2021/07/18 09:08:43;;;;;;;4.30;3.10;;;40.40;41.70;;;;;;6255466;23;20391;-83
2021/07/18 09:11:22;;;;;;;5.50;2.87;;;39.60;41.40;;;;;;6250936;22;20517;-83
2021/07/18 09:13:57;;;;;;;4.07;3.23;;;39.70;42.20;;;;;;6252916;23;20392;-84
2021/07/18 09:16:29;;;;;;;3.10;2.50;;;40.00;41.60;;;;;;6251978;23;20490;-83
2021/07/18 09:19:18;;;;;;;4.27;3.43;;;39.30;41.50;;;;;;6252090;23;20443;-84
2021/07/18 09:22:14;;;;;;;4.50;2.40;;;40.10;42.00;;;;;;6250636;22;20435;-84
2021/07/18 09:24:46;;;;;;;3.70;2.80;;;40.60;41.40;;;;;;6251092;23;20467;-81
2021/07/18 09:27:17;;;;;;;4.47;3.60;;;40.80;40.00;;;;;;6249489;23;20395;-83
2021/07/18 09:29:46;;;;;;;4.50;3.10;;;38.90;41.60;;;;;;6251894;22;20767;-82
2021/07/18 09:32:15;;;;;;;3.03;2.73;;;39.00;43.00;;;;;;6252991;23;20783;-82
2021/07/18 09:34:44;;;;;;;5.77;3.50;;;39.90;42.00;;;;;;6250219;23;20412;-82
2021/07/18 09:37:15;;;;;;;4.23;2.83;;;40.60;40.70;;;;;;6268419;23;20586;-81
2021/07/18 09:39:49;;;;;;;3.97;3.00;;;40.40;40.50;;;;;;6262773;22;20750;-83
2021/07/18 09:42:34;;;;;;;5.03;2.70;;;41.00;40.00;;;;;;6248869;23;20697;-82
2021/07/18 09:45:04;;;;;;;3.40;3.10;;;41.10;39.20;;;;;;6246949;23;20411;-82
2021/07/18 09:47:31;;;;;;;4.70;3.03;;;40.60;39.50;;;;;;6246862;23;20403;-82
2021/07/18 09:49:57;;;;;;;4.17;3.00;;;41.00;39.40;;;;;;6248174;22;20420;-83
2021/07/18 09:52:26;;;;;;;5.50;3.30;;;41.10;39.40;;;;;;6248389;23;20415;-83
2021/07/18 09:54:54;;;;;;;5.50;2.93;;;40.60;39.10;;;;;;6247475;23;20404;-83
2021/07/18 09:57:37;;;;;;;6.03;2.77;;;40.90;39.80;;;;;;6249158;23;20411;-84
2021/07/18 10:00:08;;;;;;;5.43;2.80;;;41.60;38.90;;;;;;6248766;22;20444;-83
2021/07/18 10:02:35;;;;;;;2.67;2.47;;;41.40;38.50;;;;;;6258154;23;20399;-82
2021/07/18 10:05:03;;;;;;;2.70;2.50;;;41.40;38.40;;;;;;6269791;23;20384;-82
2021/07/18 10:07:35;;;;;;;3.33;3.13;;;41.00;38.50;;;;;;6265962;23;20404;-82
2021/07/18 10:10:03;;;;;;;5.73;3.60;;;40.20;40.00;;;;;;6268797;22;20411;-81
2021/07/18 10:12:31;;;;;;;6.60;2.70;;;40.30;41.10;;;;;;6259584;23;20401;-83
2021/07/18 10:15:00;;;;;;;3.73;2.70;;;40.30;40.30;;;;;;6255355;23;20403;-83
2021/07/18 10:17:28;;;;;;;3.07;2.47;;;41.80;39.10;;;;;;6254787;23;20423;-82
2021/07/18 10:19:56;;;;;;;2.93;2.67;;;42.10;37.70;;;;;;6256091;22;20447;-83
2021/07/18 10:22:24;;;;;;;3.17;2.87;;;42.40;37.10;;;;;;6256949;23;20399;-83
2021/07/18 10:24:54;;;;;;;3.80;3.23;;;43.00;36.40;;;;;;6255068;23;20399;-82
2021/07/18 10:27:22;;;;;;;4.33;3.00;;;42.80;35.80;;;;;;6255821;23;20825;-80
2021/07/18 10:29:52;;;;;;;4.83;3.50;;;40.10;38.00;;;;;;6256058;22;20424;-82
2021/07/18 10:32:24;;;;;;;2.97;2.50;;;40.50;39.40;;;;;;6253298;23;20451;-81
2021/07/18 10:34:54;;;;;;;3.90;3.07;;;40.20;39.40;;;;;;6250590;23;20420;-82
2021/07/18 10:37:21;;;;;;;5.37;3.50;;;40.00;40.40;;;;;;6255620;23;20872;-83
2021/07/18 10:39:48;;;;;;;4.47;3.20;;;41.40;38.70;;;;;;6253753;22;20455;-82
2021/07/18 10:42:17;;;;;;;3.83;2.90;;;42.10;37.10;;;;;;6260727;23;20411;-82
2021/07/18 10:44:47;;;;;;;3.80;3.07;;;42.30;37.10;;;;;;6257077;23;20404;-83
2021/07/18 10:47:14;;;;;;;4.37;2.90;;;42.70;36.10;;;;;;6256667;23;20404;-84
2021/07/18 10:49:55;;;;;;;3.37;2.87;;;42.70;35.90;;;;;;6255599;22;20400;-84
2021/07/18 10:52:24;;;;;;;5.40;2.93;;;43.30;35.30;;;;;;6255423;23;20397;-82
2021/07/18 10:54:51;;;;;;;3.73;2.73;;;42.30;36.20;;;;;;6255267;23;20404;-83
2021/07/18 10:57:23;;;;;;;3.27;2.80;;;43.10;35.70;;;;;;6254657;23;20412;-82
2021/07/18 10:59:50;;;;;;;5.40;3.00;;;43.30;35.40;;;;;;6256666;22;20954;-84
2021/07/18 11:02:19;;;;;;;3.87;3.10;;;43.60;34.40;;;;;;6255179;23;20408;-84
2021/07/18 11:04:47;;;;;;;4.20;2.97;;;43.60;34.40;;;;;;6253559;23;20747;-83
2021/07/18 11:07:30;;;;;;;5.80;3.10;;;43.50;34.50;;;;;;6254714;23;20400;-84
2021/07/18 11:09:58;;;;;;;5.30;2.57;;;44.40;33.90;;;;;;6256589;22;20431;-82
2021/07/18 11:12:49;;;;;;;4.43;2.63;;;43.90;33.60;;;;;;6247156;22;20464;-83
2021/07/18 11:15:52;;;;;;;4.43;2.50;;;44.30;33.70;;;;;;6246611;23;20389;-83
2021/07/18 11:18:51;;;;;;;2.90;2.57;;;44.40;32.80;;;;;;6246688;23;20771;-83
2021/07/18 11:29:35;;;;;;;5.97;3.33;;;44.30;33.60;;;;;;6008511;23;20408;-85
2021/07/18 11:35:44;;;;;;;3.50;3.00;;;43.40;33.20;;;;;;6204795;23;20424;-84
2021/07/18 11:38:36;;;;;;;3.63;3.33;;;41.00;35.70;;;;;;6218328;23;20405;-86
2021/07/18 11:44:11;;;;;;;2.73;2.50;;;40.60;37.50;;;;;;6219479;23;20425;-86
2021/07/18 12:01:04;;;;;;;5.23;3.30;;;43.30;33.30;;;;;;6058080;23;20405;-86
2021/07/18 12:12:04;;;;;;;4.10;3.57;;;45.30;32.10;;;;;;5992792;23;20455;-85
2021/07/18 12:22:18;;;;;;;6.43;5.93;;;45.00;30.30;;;;;;5975993;23;20431;-85
2021/07/18 12:25:42;;;;;;;;;;;;;;;;;;;;;
2021/07/18 12:28:52;;;;;;;7.50;6.80;;;42.60;32.60;;;;;;6115828;23;20444;-85
2021/07/18 12:31:31;;;;;;;7.30;6.70;;;41.60;34.00;;;;;;6173978;23;20484;-86
2021/07/18 12:58:32;;;;;;;10.57;9.67;;;43.60;32.00;;;;;;6016178;23;20502;-84
2021/07/18 13:09:07;;;;;;;12.27;11.20;;;39.70;36.80;;;;;;6190608;23;20958;-85
2021/07/18 13:16:00;;;;;;;12.27;11.20;;;41.80;33.60;;;;;;6078335;23;20400;-86
2021/07/18 13:33:38;;;;;;;14.13;12.97;;;43.30;31.20;;;;;;6177803;23;20421;-85
2021/07/18 13:40:26;;;;;;;13.10;11.90;;;41.90;33.40;;;;;;6037879;23;20984;-85
2021/07/18 13:43:20;;;;;;;13.00;11.70;;;40.60;35.40;;;;;;6032935;23;21139;-85
2021/07/18 13:48:57;;;;;;;15.50;14.10;;;39.50;37.00;;;;;;6121395;23;20574;-85
2021/07/18 13:57:58;;;;;;;15.47;13.00;;;41.50;33.90;;;;;;6129258;23;20407;-85
2021/07/18 14:00:40;;;;;;;14.10;13.00;;;41.10;34.20;;;;;;6201603;23;20946;-85
2021/07/18 14:06:04;;;;;;;17.33;15.80;;;40.50;35.40;;;;;;6209858;23;20951;-85
2021/07/18 14:11:42;;;;;;;15.60;14.20;;;38.50;36.60;;;;;;6215569;23;20452;-84
2021/07/18 14:20:39;;;;;;;15.57;14.20;;;39.70;35.70;;;;;;6173686;23;20440;-83
2021/07/18 14:26:16;;;;;;;14.93;13.50;;;39.80;35.80;;;;;;6198731;23;20393;-83
2021/07/18 14:28:47;;;;;;;17.27;15.70;;;39.20;37.10;;;;;;6215197;23;20456;-83
2021/07/18 14:31:18;;;;;;;16.43;14.93;;;38.70;37.30;;;;;;6216246;23;20444;-84
2021/07/18 14:33:47;;;;;;;16.30;14.90;;;38.70;37.00;;;;;;6221355;23;20455;-84
2021/07/18 14:39:11;;;;;;;17.43;15.93;;;37.60;38.50;;;;;;6215643;23;20447;-84
2021/07/18 14:42:00;;;;;;;17.20;15.60;;;36.90;39.50;;;;;;6216180;23;20409;-84
2021/07/18 14:45:14;;;;;;;16.20;14.80;;;36.10;40.40;;;;;;6217758;23;20412;-84
2021/07/18 14:48:05;;;;;;;18.03;16.20;;;35.00;42.20;;;;;;6211840;23;20591;-83
2021/07/18 14:50:44;;;;;;;18.10;16.23;;;34.10;44.50;;;;;;6134671;23;20453;-83
2021/07/18 14:53:26;;;;;;;17.90;16.10;;;33.30;45.90;;;;;;6166731;23;20395;-84
2021/07/18 14:56:06;;;;;;;17.90;16.20;;;32.30;47.60;;;;;;6157436;23;20415;-84
2021/07/18 14:58:59;;;;;;;19.30;17.23;;;32.00;48.90;;;;;;6159539;23;20422;-83
2021/07/18 15:02:10;;;;;;;;;;;;;;;;;;;;;
2021/07/18 15:08:00;;;;;;;18.10;16.50;;;31.00;50.20;;;;;;6191181;23;20967;-83
2021/07/18 15:11:04;;;;;;;16.97;15.40;;;31.00;50.30;;;;;;6188172;23;20759;-84
2021/07/18 15:17:03;;;;;;;16.73;15.13;;;31.00;51.10;;;;;;6196706;23;20406;-83
2021/07/18 15:20:11;;;;;;;19.27;17.53;;;30.80;51.40;;;;;;6194280;23;20917;-84
2021/07/18 15:26:42;;;;;;;19.17;17.37;;;30.50;51.10;;;;;;6048774;23;20429;-84
2021/07/18 15:29:19;;;;;;;14.80;13.40;;;30.30;52.00;;;;;;6179983;23;20449;-84
2021/07/18 15:31:46;;;;;;;17.17;15.67;;;30.20;52.60;;;;;;6188214;23;20592;-84
2021/07/18 15:34:13;;;;;;;14.20;12.83;;;30.00;53.20;;;;;;6189293;23;20939;-84
2021/07/18 15:36:39;;;;;;;15.43;13.93;;;30.00;53.50;;;;;;6202051;23;20414;-84
2021/07/18 15:39:06;;;;;;;15.87;14.20;;;30.10;54.20;;;;;;6205495;23;20402;-84
2021/07/18 15:41:34;;;;;;;16.83;14.50;;;30.10;54.00;;;;;;6206395;23;20414;-84
2021/07/18 15:44:05;;;;;;;15.30;13.70;;;30.10;54.00;;;;;;6196899;23;20476;-84
2021/07/18 15:46:33;;;;;;;17.07;15.47;;;30.00;53.80;;;;;;6189274;23;20497;-84
2021/07/18 15:49:00;;;;;;;16.60;14.80;;;30.00;54.10;;;;;;6189362;23;20916;-84
2021/07/18 15:51:27;;;;;;;16.60;15.20;;;30.00;54.40;;;;;;6190501;23;20450;-84
2021/07/18 15:53:53;;;;;;;15.03;13.60;;;29.90;54.20;;;;;;6192037;23;20406;-84